createdAt,value
2023-03-13T00:01:41.680Z,100176.88
2023-03-13T00:07:05.326Z,100155.55
2023-03-13T00:12:27.709Z,100147.60
2023-03-13T00:17:49.946Z,100145.73
2023-03-13T00:23:12.394Z,100142.03
2023-03-13T00:28:35.753Z,100143.59
2023-03-13T00:34:01.865Z,100136.45
2023-03-13T00:39:25.316Z,100131.16
2023-03-13T00:44:48.073Z,100131.28
2023-03-13T00:50:10.452Z,100118.05
2023-03-13T00:55:32.840Z,100126.64
2023-03-13T01:00:55.044Z,100114.10
2023-03-13T01:06:22.331Z,100107.95
2023-03-13T01:11:48.250Z,100093.62
2023-03-13T01:17:10.741Z,100083.11
2023-03-13T01:22:33.144Z,100090.97
2023-03-13T01:27:55.601Z,100077.59
2023-03-13T01:33:18.328Z,100086.56
2023-03-13T01:38:41.095Z,100083.91
2023-03-13T01:44:04.393Z,100088.48
2023-03-13T01:49:41.997Z,100079.77
2023-03-13T01:55:16.718Z,100065.88
2023-03-13T02:00:43.043Z,100055.29
2023-03-13T02:06:08.394Z,100064.25
2023-03-13T02:11:54.893Z,100056.70
2023-03-13T02:17:18.196Z,100056.47
2023-03-13T02:22:57.307Z,100049.59
2023-03-13T02:28:24.052Z,100042.83
2023-03-13T02:33:49.989Z,100046.61
2023-03-13T02:39:18.562Z,100040.63
2023-03-13T02:44:44.815Z,100038.06
2023-03-13T02:50:07.074Z,100037.20
2023-03-13T02:55:45.857Z,100024.91
2023-03-13T03:01:08.660Z,100026.75
2023-03-13T03:06:31.685Z,100017.88
2023-03-13T03:11:54.276Z,100036.34
2023-03-13T03:17:16.941Z,100024.75
2023-03-13T03:22:40.929Z,100029.02
2023-03-13T03:28:03.175Z,100020.92
2023-03-13T03:33:25.367Z,100018.23
2023-03-13T03:38:48.320Z,100006.79
2023-03-13T03:44:11.488Z,99997.75
2023-03-13T03:49:34.036Z,100008.34
2023-03-13T03:54:56.682Z,99991.60
2023-03-13T04:00:22.568Z,99975.72
2023-03-13T04:05:45.088Z,99966.08
2023-03-13T04:11:07.435Z,99962.48
2023-03-13T04:16:30.548Z,99960.61
2023-03-13T04:21:52.841Z,99956.17
2023-03-13T04:27:15.084Z,99951.66
2023-03-13T04:32:37.464Z,99951.61
2023-03-13T04:38:01.498Z,99952.46
2023-03-13T04:43:24.354Z,99949.56
2023-03-13T04:48:47.331Z,99945.98
2023-03-13T04:54:09.677Z,99942.26
2023-03-13T04:59:33.008Z,99939.53
2023-03-13T05:04:55.450Z,99927.06
2023-03-13T05:10:18.077Z,99922.45
2023-03-13T05:15:40.375Z,99919.59
2023-03-13T05:21:02.764Z,99909.67
2023-03-13T05:26:25.007Z,99899.80
2023-03-13T05:31:47.472Z,99888.19
2023-03-13T05:37:09.897Z,99889.63
2023-03-13T05:42:32.172Z,99885.81
2023-03-13T05:47:55.812Z,99889.59
2023-03-13T05:53:18.019Z,99888.33
2023-03-13T05:58:40.410Z,99879.21
2023-03-13T06:04:02.894Z,99878.00
2023-03-13T06:09:25.476Z,99879.30
2023-03-13T06:14:48.109Z,99875.38
2023-03-13T06:20:10.681Z,99860.57
2023-03-13T06:25:33.543Z,99852.20
2023-03-13T06:30:56.656Z,99849.78
2023-03-13T06:36:20.157Z,99848.03
2023-03-13T06:41:43.027Z,99831.84
2023-03-13T06:47:05.433Z,99831.97
2023-03-13T06:52:41.426Z,99828.80
2023-03-13T06:57:55.233Z,99821.97
2023-03-13T07:03:19.048Z,99823.11
2023-03-13T07:08:42.186Z,99815.67
2023-03-13T07:14:16.417Z,99806.80
2023-03-13T07:19:30.837Z,99794.13
2023-03-13T07:24:53.912Z,99781.95
2023-03-13T07:30:18.039Z,99768.08
2023-03-13T07:35:41.265Z,99764.80
2023-03-13T07:41:10.402Z,99753.31
2023-03-13T07:46:34.966Z,99746.66
2023-03-13T07:51:58.068Z,99725.96
2023-03-13T07:57:21.684Z,99726.57
2023-03-13T08:02:43.964Z,99719.05
2023-03-13T08:08:06.981Z,99710.75
2023-03-13T08:13:30.106Z,99708.24
2023-03-13T08:19:07.094Z,99705.38
2023-03-13T08:24:30.578Z,99697.19
2023-03-13T08:29:53.496Z,99687.25
2023-03-13T08:35:16.834Z,99682.91
2023-03-13T08:40:40.091Z,99668.83
2023-03-13T08:46:04.526Z,99673.67
2023-03-13T08:51:34.333Z,99660.68
2023-03-13T08:56:50.687Z,99661.98
2023-03-13T09:02:14.836Z,99663.94
2023-03-13T09:07:37.556Z,99657.63
2023-03-13T09:12:59.758Z,99633.97
2023-03-13T09:18:22.137Z,99633.45
2023-03-13T09:23:45.173Z,99620.74
2023-03-13T09:29:08.067Z,99616.73
2023-03-13T09:34:32.176Z,99603.03
2023-03-13T09:39:57.613Z,99585.20
2023-03-13T09:45:34.856Z,99585.66
2023-03-13T09:51:17.511Z,99585.41
2023-03-13T09:56:53.508Z,99572.82
2023-03-13T10:02:24.854Z,99548.78
2023-03-13T10:07:58.717Z,99533.58
2023-03-13T10:13:28.410Z,99531.65
2023-03-13T10:18:52.092Z,99525.80
2023-03-13T10:24:30.515Z,99512.90
2023-03-13T10:30:02.807Z,99499.45
2023-03-13T10:35:28.837Z,99491.80
2023-03-13T10:40:54.126Z,99484.84
2023-03-13T10:46:17.366Z,99485.10
2023-03-13T10:51:48.459Z,99470.83
2023-03-13T10:57:26.914Z,99453.17
2023-03-13T11:02:53.906Z,99439.80
2023-03-13T11:08:35.485Z,99441.22
2023-03-13T11:13:59.817Z,99423.11
2023-03-13T11:19:48.332Z,99408.04
2023-03-13T11:25:24.843Z,99405.74
2023-03-13T11:31:17.980Z,99401.11
2023-03-13T11:37:15.178Z,99391.91
2023-03-13T11:42:54.112Z,99373.98
2023-03-13T11:48:41.147Z,99364.32
2023-03-13T11:54:45.276Z,99341.13
2023-03-13T12:00:29.266Z,99327.44
2023-03-13T12:06:21.846Z,99321.38
2023-03-13T12:11:58.685Z,99303.36
2023-03-13T12:17:49.214Z,99291.96
2023-03-13T12:23:42.753Z,99289.25
2023-03-13T12:29:40.932Z,99297.45
2023-03-13T12:35:38.367Z,99298.39
2023-03-13T12:41:22.257Z,99294.98
2023-03-13T12:47:17.723Z,99265.08
2023-03-13T12:53:00.236Z,99261.37
2023-03-13T12:58:56.241Z,99246.77
2023-03-13T13:04:31.064Z,99252.97
2023-03-13T13:10:07.096Z,99236.64
2023-03-13T13:15:53.989Z,99233.42
2023-03-13T13:21:31.486Z,99205.98
2023-03-13T13:27:02.091Z,99207.70
2023-03-13T13:32:29.271Z,99211.08
2023-03-13T13:37:53.199Z,99204.05
2023-03-13T13:43:20.123Z,99187.84
2023-03-13T13:48:57.480Z,99192.36
2023-03-13T13:54:53.864Z,99157.55
2023-03-13T14:00:32.227Z,99183.73
2023-03-13T14:05:58.353Z,99195.03
2023-03-13T14:11:34.537Z,99177.14
2023-03-13T14:17:02.992Z,99175.30
2023-03-13T14:22:27.283Z,99155.71
2023-03-13T14:27:51.652Z,99160.77
2023-03-13T14:33:14.470Z,99155.01
2023-03-13T14:38:41.856Z,99129.65
2023-03-13T14:44:08.938Z,99125.67
2023-03-13T14:49:37.296Z,99144.31
2023-03-13T14:55:16.671Z,99122.59
2023-03-13T15:00:54.833Z,99157.41
2023-03-13T15:06:36.226Z,99137.22
2023-03-13T15:12:12.088Z,99111.55
2023-03-13T15:17:44.669Z,99131.14
2023-03-13T15:23:06.992Z,99112.11
2023-03-13T15:28:32.904Z,99124.22
2023-03-13T15:33:57.742Z,99122.65
2023-03-13T15:39:30.759Z,99100.38
2023-03-13T15:44:52.961Z,99116.69
2023-03-13T15:50:27.153Z,99129.51
2023-03-13T15:55:49.693Z,99141.91
2023-03-13T16:01:12.730Z,99133.45
2023-03-13T16:06:38.958Z,99134.14
2023-03-13T16:12:01.402Z,99126.78
2023-03-13T16:17:32.509Z,99145.97
2023-03-13T16:22:55.052Z,99139.00
2023-03-13T16:28:19.257Z,99144.16
2023-03-13T16:33:41.487Z,99160.36
2023-03-13T16:39:05.942Z,99144.11
2023-03-13T16:44:28.215Z,99139.63
2023-03-13T16:49:51.081Z,99142.15
2023-03-13T16:55:13.912Z,99140.09
2023-03-13T17:00:40.058Z,99140.09
2023-03-13T17:06:03.135Z,99142.78
2023-03-13T17:11:27.655Z,99140.47
2023-03-13T17:16:53.660Z,99134.83
2023-03-13T17:22:18.097Z,99129.47
2023-03-13T17:27:40.263Z,99141.04
2023-03-13T17:33:03.271Z,99142.41
2023-03-13T17:38:25.773Z,99124.25
2023-03-13T17:43:49.028Z,99132.99
2023-03-13T17:49:13.340Z,99130.46
2023-03-13T17:54:35.848Z,99126.94
2023-03-13T17:59:58.605Z,99121.10
2023-03-13T18:05:21.121Z,99120.26
2023-03-13T18:10:45.164Z,99124.31
2023-03-13T18:16:07.462Z,99127.25
2023-03-13T18:21:30.264Z,99107.17
2023-03-13T18:26:55.763Z,99102.70
2023-03-13T18:32:21.720Z,99095.65
2023-03-13T18:37:46.280Z,99054.48
2023-03-13T18:43:08.890Z,99061.55
2023-03-13T18:48:31.216Z,99036.77
2023-03-13T18:53:53.612Z,99041.20
2023-03-13T18:59:21.184Z,99039.29
2023-03-13T19:04:43.733Z,99053.27
2023-03-13T19:10:08.880Z,99055.54
2023-03-13T19:15:33.562Z,99048.49
2023-03-13T19:20:56.268Z,99053.10
2023-03-13T19:26:23.265Z,99072.27
2023-03-13T19:31:45.841Z,99071.64
2023-03-13T19:37:09.061Z,99062.94
2023-03-13T19:42:31.271Z,99050.15
2023-03-13T19:47:54.689Z,99060.62
2023-03-13T19:53:17.158Z,99063.61
2023-03-13T19:58:39.805Z,99050.78
2023-03-13T20:04:02.407Z,99050.30
2023-03-13T20:09:27.888Z,99052.56
2023-03-13T20:14:50.809Z,99062.81
2023-03-13T20:20:14.537Z,99053.04
2023-03-13T20:25:37.077Z,99044.38
2023-03-13T20:31:01.037Z,99033.55
2023-03-13T20:36:30.408Z,99024.39
2023-03-13T20:41:54.564Z,99014.89
2023-03-13T20:47:17.181Z,98996.59
2023-03-13T20:52:39.525Z,99003.83
2023-03-13T20:58:01.769Z,98989.35
2023-03-13T21:03:24.033Z,98972.27
2023-03-13T21:08:46.887Z,98973.18
2023-03-13T21:14:09.579Z,98982.11
2023-03-13T21:19:32.227Z,98986.87
2023-03-13T21:25:11.812Z,98999.03
2023-03-13T21:30:35.576Z,98983.18
2023-03-13T21:35:58.793Z,98970.70
2023-03-13T21:41:25.400Z,98954.15
2023-03-13T21:46:49.381Z,98967.05
2023-03-13T21:52:11.753Z,98965.56
2023-03-13T21:57:34.843Z,98952.14
2023-03-13T22:02:57.597Z,98961.12
2023-03-13T22:08:19.952Z,98950.20
2023-03-13T22:13:42.409Z,98931.86
2023-03-13T22:19:06.386Z,98914.56
2023-03-13T22:24:29.129Z,98904.92
2023-03-13T22:29:52.174Z,98896.12
2023-03-13T22:35:14.965Z,98880.64
2023-03-13T22:40:38.262Z,98867.75
2023-03-13T22:46:00.930Z,98857.84
2023-03-13T22:51:27.839Z,98852.73
2023-03-13T22:56:50.230Z,98846.40
2023-03-13T23:02:12.451Z,98831.46
2023-03-13T23:07:37.147Z,98838.94
2023-03-13T23:12:59.377Z,98856.60
2023-03-13T23:18:21.574Z,98834.84
2023-03-13T23:23:43.866Z,98838.66
2023-03-13T23:29:06.861Z,98846.19
2023-03-13T23:34:29.178Z,98837.09
2023-03-13T23:39:51.884Z,98843.34
2023-03-13T23:45:14.364Z,98830.89
2023-03-13T23:50:36.871Z,98823.73
2023-03-13T23:56:05.040Z,98831.56
